Nearby METAR Reports

 

K8A0 - Albertville Muni, Alabama, USA
Distance from station: SW 1mi, 2km
Updated: 07/16/2019 8:35pm
Clear
Clear
 Wind from calm
Wind: Calm
Temperature: 79°F , 26°C
Dew Point: 68°F , 20°C
Humidity: 70%
Barometer: 30.11 inHg , 1019.6 hPa
Clouds: Clear
Visibility: 10 miles , 16 km
2019/07/17 01:35 K8A0 170135Z AUTO 00000KT 10SM CLR 26/20 A3011 RMK AO2
KGAD - Gadsden Muni, Alabama, USA
Distance from station: SSE 21mi, 35km
Updated: 07/16/2019 7:56pm
Clear
Clear
 Wind from calm
Wind: Calm
Temperature: 82°F , 28°C
Heat Index: 89°F , 32°C
Dew Point: 75°F , 24°C
Humidity: 79%
Barometer: 30.08 inHg , 1018.6 hPa
Clouds: Clear
Visibility: 10 miles , 16 km
2019/07/17 00:56 KGAD 170056Z AUTO 00000KT 10SM CLR 28/24 A3008 RMK AO2 SLP184 T02830244
 
K4A6 - Scottsboro, Alabama, USA
Distance from station: NNE 33mi, 53km
Updated: 07/16/2019 8:35pm
Few Clouds
Few Clouds
 Wind from WSW
Wind: WSW 7 mph , 11 km/h
Temperature: 79°F , 26°C
Dew Point: 73°F , 23°C
Humidity: 84%
Barometer: 30.09 inHg , 1019 hPa
Clouds: Few Clouds
Visibility: 10 miles , 16 km
Cloud details: Few Clouds 6000 ft
2019/07/17 01:35 K4A6 170135Z AUTO 24006KT 10SM FEW060 26/23 A3009 RMK AO2
K4A9 - Ft Payne/Isbell, Alabama, USA
Distance from station: ENE 33mi, 54km
Updated: 07/16/2019 8:35pm
Clear
Clear
 Wind from calm
Wind: Calm
Temperature: 79°F , 26°C
Dew Point: 70°F , 21°C
Humidity: 74%
Barometer: 30.08 inHg , 1018.6 hPa
Clouds: Clear
Visibility: 10 miles , 16 km
2019/07/17 01:35 K4A9 170135Z AUTO 00000KT 10SM CLR 26/21 A3008 RMK AO2 T02560212
 
KCMD - Cullman/Folsom F, Alabama, USA
Distance from station: W 35mi, 57km
Updated: 07/16/2019 8:35pm
Partly cloudy
Partly cloudy
 Wind from calm
Wind: Calm
Temperature: 72°F , 22°C
Dew Point: 70°F , 21°C
Humidity: 94%
Barometer: 30.12 inHg , 1020 hPa
Clouds: Partly cloudy
Visibility: 10 miles , 16 km
Cloud details: Partly cloudy 4400 ft
Partly cloudy 6000 ft
Partly cloudy 6500 ft
2019/07/17 01:35 KCMD 170135Z AUTO 00000KT 10SM SCT044 SCT060 SCT065 22/21 A3012 RMK AO2 T02210213
KHUA - Redstone Arsenal, Alabama, USA
Distance from station: NW 40mi, 64km
Updated: 07/16/2019 7:58pm
Light rain, Mist, Overcast
Light rain, Mist, Overcast
 Wind from SSW
Wind: SSW 6 mph , 9 km/h
Temperature: 73°F , 23°C
Dew Point: 72°F , 22°C
Humidity: 94%
Barometer: 30.07 inHg , 1018.3 hPa
Summary: Light rain, Mist
Clouds: Overcast
Visibility: 3 miles , 5 km
Cloud details: Few Clouds 300 ft
Partly cloudy 5500 ft
Mostly cloudy 8000 ft
Mostly cloudy 14000 ft
Overcast 17000 ft
2019/07/17 00:58 KHUA 170058Z AUTO 21005KT 3SM -RA BR FEW003 SCT055 BKN080 BKN140 OVC170 23/22 A3007 RMK AO2 RAE01RAB49 SLP178 P0004 T02300220 $
 
KHSV - Huntsville, Alabama, USA
Distance from station: NW 42mi, 68km
Updated: 07/16/2019 7:53pm
Overcast
Overcast
 Wind from S
Wind: S 5 mph , 7 km/h
Temperature: 73°F , 23°C
Dew Point: 72°F , 22°C
Humidity: 94%
Barometer: 30.08 inHg , 1018.6 hPa
Clouds: Overcast
Visibility: 10 miles , 16 km
Cloud details: Partly cloudy 4200 ft
Partly cloudy 5000 ft
Overcast 15000 ft
2019/07/17 00:53 KHSV 170053Z 19004KT 10SM SCT042 SCT050 OVC150 23/22 A3008 RMK AO2 RAE07B32E50 TSE2355 SLP179 P0000 T02330222 $
KMDQ - Huntsville/Madis, Alabama, USA
Distance from station: NNW 47mi, 75km
Updated: 07/16/2019 8:35pm
Partly cloudy
Partly cloudy
 Wind from S
Wind: S 7 mph , 11 km/h
Temperature: 73°F , 23°C
Dew Point: 72°F , 22°C
Humidity: 94%
Barometer: 30.08 inHg , 1018.6 hPa
Clouds: Partly cloudy
Visibility: 10 miles , 16 km
Cloud details: Partly cloudy 10000 ft
2019/07/17 01:35 KMDQ 170135Z AUTO 19006KT 10SM SCT100 23/22 A3008 RMK A02 P0002 T02350221
 
KASN - Talladega, Alabama, USA
Distance from station: SSE 48mi, 77km
Updated: 07/16/2019 8:35pm
Clear
Clear
 Wind from calm
Wind: Calm
Temperature: 82°F , 28°C
Heat Index: 86°F , 30°C
Dew Point: 72°F , 22°C
Humidity: 70%
Barometer: 30.09 inHg , 1019 hPa
Clouds: Clear
Visibility: 10 miles , 16 km
2019/07/17 01:35 KASN 170135Z AUTO 00000KT 10SM CLR 28/22 A3009 RMK AO2 T02770219
KDCU - Decatur, Alabama, USA
Distance from station: NW 49mi, 80km
Updated: 07/16/2019 7:53pm
Few Clouds
Few Clouds
 Wind from S
Wind: S 7 mph , 11 km/h
Temperature: 73°F , 23°C
Dew Point: 73°F , 23°C
Humidity: 100%
Barometer: 30.08 inHg , 1018.6 hPa
Clouds: Few Clouds
Visibility: 10 miles , 16 km
Cloud details: Few Clouds 4600 ft
2019/07/17 00:53 KDCU 170053Z AUTO 17006KT 10SM FEW046 23/23 A3008 RMK AO2 RAE2355 SLP180 P0000 T02280228 $
 
KGKT - Sevierville, Tennessee, USA
Distance from station: NE 235mi, 378km
Updated: 07/16/2019 8:35pm
Clear
Clear
 Wind from calm
Wind: Calm
Temperature: 82°F , 28°C
Heat Index: 85°F , 29°C
Dew Point: 68°F , 20°C
Humidity: 62%
Barometer: 30.08 inHg , 1018.6 hPa
Clouds: Clear
Visibility: 10 miles , 16 km
2019/07/17 01:35 KGKT 170135Z AUTO 00000KT 10SM CLR 28/20 A3008 RMK A01
KECP - Panama City, Florida, USA
Distance from station: S 330mi, 531km
Updated: 07/16/2019 7:53pm
Clear
Clear
 Wind from SW
Wind: SW 3 mph , 6 km/h
Temperature: 82°F , 28°C
Heat Index: 90°F , 32°C
Dew Point: 77°F , 25°C
Humidity: 84%
Barometer: 30.09 inHg , 1019 hPa
Clouds: Clear
Visibility: 10 miles , 16 km
2019/07/17 00:53 KECP 170053Z 23003KT 10SM CLR 28/25 A3009 RMK AO2 SLP198 T02830250
 
KNYL - Yuma MCAS, Arizona, USA
Distance from station: SW 1900mi, 3600km
Updated: 07/16/2019 7:57pm
Few Clouds
Few Clouds
 Wind from S
Wind: S 15 mph , 24 km/h
Temperature: 109°F , 43°C
Dew Point: 57°F , 14°C
Humidity: 18%
Barometer: 29.64 inHg , 1003.7 hPa
Clouds: Few Clouds
Visibility: 7 miles , 11 km
Cloud details: Few Clouds 10000 ft
2019/07/17 00:57 KNYL 170057Z 18013KT 7SM FEW100 43/14 A2964 RMK AO2 SLP032 T04280139 $